Time;durP1;ratioP1;P1;durP2;ratioP2;P2;SDS_P1;SDS_P2;PMS_P1;PMS_P2;Temp;Humidity;BMP_temperature;BMP_pressure;BME280_temperature;BME280_humidity;BME280_pressure;Samples;Min_cycle;Max_cycle;Signal;HPM_P1;HPM_P2
2023/01/21 00:02:10;;;;;;;11.70;5.85;;;;;;;-2.49;100.00;101672.78;4859356;29;20033;-96
2023/01/21 00:04:39;;;;;;;14.32;6.15;;;;;;;-2.42;100.00;101689.75;4859770;29;20087;-95
2023/01/21 00:07:06;;;;;;;10.80;6.43;;;;;;;-2.41;100.00;101691.47;4859500;29;20109;-95
2023/01/21 00:09:32;;;;;;;13.07;5.65;;;;;;;-2.42;100.00;101669.53;4859549;29;20057;-96
2023/01/21 00:12:01;;;;;;;12.18;6.72;;;;;;;-2.17;100.00;101688.44;4859322;29;20533;-95
2023/01/21 00:14:28;;;;;;;22.73;8.00;;;;;;;-2.23;100.00;101680.78;4862905;29;20053;-95
2023/01/21 00:16:53;;;;;;;19.48;7.30;;;;;;;-2.29;100.00;101681.56;4863210;29;20248;-94
2023/01/21 00:19:19;;;;;;;19.50;6.75;;;;;;;-2.16;100.00;101668.25;4863014;29;20155;-95
2023/01/21 00:21:44;;;;;;;11.07;6.10;;;;;;;-2.16;100.00;101675.84;4862765;29;20037;-95
2023/01/21 00:24:10;;;;;;;15.45;6.07;;;;;;;-2.00;100.00;101714.00;4862832;29;20552;-95
2023/01/21 00:26:35;;;;;;;18.75;6.70;;;;;;;-2.34;100.00;101683.16;4862955;29;20022;-96
2023/01/21 00:29:01;;;;;;;17.98;6.53;;;;;;;-2.42;100.00;101682.19;4862823;29;20166;-95
2023/01/21 00:31:26;;;;;;;13.68;5.57;;;;;;;-2.41;100.00;101691.47;4862826;29;20353;-95
2023/01/21 00:33:52;;;;;;;15.10;6.22;;;;;;;-2.41;100.00;101699.06;4862819;29;20033;-95
2023/01/21 00:36:17;;;;;;;12.88;5.55;;;;;;;-2.42;100.00;101682.19;4862555;29;20026;-95
2023/01/21 00:38:47;;;;;;;13.38;6.20;;;;;;;-2.25;100.00;101721.22;4862602;29;20029;-94
2023/01/21 00:41:13;;;;;;;18.10;6.68;;;;;;;-2.42;100.00;101715.03;4862452;29;20033;-94
2023/01/21 00:43:39;;;;;;;13.98;6.90;;;;;;;-2.46;100.00;101713.31;4862307;29;20544;-95
2023/01/21 00:46:05;;;;;;;10.35;5.97;;;;;;;-2.40;100.00;101747.09;4862531;29;20464;-95
2023/01/21 00:48:32;;;;;;;11.88;5.80;;;;;;;-2.67;100.00;101711.25;4862611;29;20397;-93
2023/01/21 00:50:59;;;;;;;18.10;5.70;;;;;;;-2.44;100.00;101735.25;4862445;29;20029;-95
2023/01/21 00:53:25;;;;;;;17.10;6.45;;;;;;;-2.55;100.00;101714.00;4862150;29;20496;-94
2023/01/21 00:55:51;;;;;;;19.17;6.80;;;;;;;-2.49;100.00;101718.28;4862236;29;20053;-95
2023/01/21 00:58:16;;;;;;;13.00;6.28;;;;;;;-2.42;100.00;101747.91;4862097;29;20109;-93
2023/01/21 01:00:42;;;;;;;22.92;6.22;;;;;;;-2.66;100.00;101718.00;4862174;29;20152;-94
2023/01/21 01:03:07;;;;;;;13.88;7.50;;;;;;;-2.66;100.00;101741.63;4862218;29;20025;-94
2023/01/21 01:05:33;;;;;;;26.55;11.95;;;;;;;-2.91;100.00;101739.44;4862182;29;20124;-95
2023/01/21 01:07:58;;;;;;;22.27;12.85;;;;;;;-3.09;100.00;101733.22;4862158;29;20033;-95
2023/01/21 01:10:24;;;;;;;23.30;13.55;;;;;;;-3.31;100.00;101728.59;4861985;29;20381;-93
2023/01/21 01:12:50;;;;;;;27.05;14.43;;;;;;;-3.26;100.00;101762.34;4861963;29;20033;-95
2023/01/21 01:15:15;;;;;;;24.67;14.57;;;;;;;-3.37;100.00;101748.63;4861798;29;20022;-95
2023/01/21 01:17:41;;;;;;;23.23;13.18;;;;;;;-3.50;100.00;101738.28;4861893;29;20025;-95
2023/01/21 01:20:07;;;;;;;24.08;12.27;;;;;;;-3.53;100.00;101738.22;4861934;29;20033;-95
2023/01/21 01:22:33;;;;;;;21.58;10.48;;;;;;;-3.42;100.00;101752.75;4861854;29;20146;-94
2023/01/21 01:24:59;;;;;;;21.38;8.63;;;;;;;-3.38;100.00;101736.84;4861156;29;20132;-95
2023/01/21 01:27:24;;;;;;;15.50;6.43;;;;;;;-2.92;100.00;101757.97;4861907;29;20120;-94
2023/01/21 01:29:49;;;;;;;15.63;7.55;;;;;;;-2.96;100.00;101720.84;4861751;29;20057;-95
2023/01/21 01:32:15;;;;;;;15.63;6.28;;;;;;;-2.47;100.00;101767.22;4861831;29;20085;-95
2023/01/21 01:34:40;;;;;;;13.43;6.40;;;;;;;-2.41;100.00;101747.09;4861715;29;20090;-94
2023/01/21 01:37:06;;;;;;;14.18;6.13;;;;;;;-2.28;100.00;101759.09;4861437;29;20029;-94
2023/01/21 01:39:32;;;;;;;14.80;6.45;;;;;;;-2.17;100.00;101728.91;4861836;29;20029;-94
2023/01/21 01:41:57;;;;;;;21.15;7.18;;;;;;;-1.88;100.00;101736.94;4861450;29;20469;-94
2023/01/21 01:44:57;;;;;;;25.92;9.00;;;;;;;-1.50;100.00;101767.03;4861843;29;20370;-95
2023/01/21 01:47:28;;;;;;;16.25;7.38;;;;;;;-1.45;100.00;101755.28;4861448;29;20029;-95
2023/01/21 01:49:55;;;;;;;17.63;6.55;;;;;;;-1.60;100.00;101766.06;4861617;29;20435;-95
2023/01/21 01:52:21;;;;;;;23.42;6.93;;;;;;;-1.69;100.00;101757.47;4861949;29;20029;-94
2023/01/21 01:54:52;;;;;;;23.92;7.10;;;;;;;-1.70;100.00;101736.38;4862298;29;20053;-94
2023/01/21 01:57:22;;;;;;;19.15;7.38;;;;;;;-1.67;100.00;101749.06;4864006;29;20037;-93
2023/01/21 01:59:49;;;;;;;25.10;7.32;;;;;;;-1.39;100.00;101783.22;4882079;29;20464;-93
2023/01/21 02:02:17;;;;;;;24.13;7.32;;;;;;;-1.39;100.00;101785.75;4866254;29;20076;-93
2023/01/21 02:04:55;;;;;;;26.17;10.80;;;;;;;-1.58;100.00;101806.59;4882061;29;20445;-93
2023/01/21 02:07:23;;;;;;;33.28;14.45;;;;;;;-1.94;100.00;101800.13;4866256;29;20081;-93
2023/01/21 02:09:51;;;;;;;23.85;12.13;;;;;;;-2.13;100.00;101795.59;4867171;29;20030;-93
2023/01/21 02:12:17;;;;;;;24.85;13.32;;;;;;;-2.37;100.00;101789.28;4866998;29;20062;-94
2023/01/21 02:14:44;;;;;;;30.10;15.35;;;;;;;-2.67;100.00;101782.88;4867173;29;20089;-94
2023/01/21 02:17:18;;;;;;;31.60;15.65;;;;;;;-2.76;100.00;101814.69;4866482;29;20026;-94
2023/01/21 02:20:12;;;;;;;29.65;15.85;;;;;;;-2.94;100.00;101820.25;4866257;29;20030;-94
2023/01/21 02:23:03;;;;;;;32.55;17.20;;;;;;;-3.27;100.00;101824.63;4866238;29;20060;-94
2023/01/21 02:25:54;;;;;;;25.92;15.00;;;;;;;-3.25;100.00;101834.72;4853144;29;20052;-94
2023/01/21 02:28:47;;;;;;;30.80;16.70;;;;;;;-3.50;100.00;101829.16;4867266;29;20120;-94
2023/01/21 02:31:19;;;;;;;30.02;15.57;;;;;;;-3.73;100.00;101841.25;4866066;29;20033;-94
2023/01/21 02:33:44;;;;;;;32.35;17.65;;;;;;;-3.80;100.00;101844.44;4866784;29;20105;-94
2023/01/21 02:36:19;;;;;;;35.00;17.25;;;;;;;-3.90;100.00;101842.50;4865112;29;20041;-93
2023/01/21 02:39:02;;;;;;;33.03;18.02;;;;;;;-3.98;100.00;101827.16;4864545;29;20030;-93
2023/01/21 02:41:35;;;;;;;33.80;17.48;;;;;;;-4.12;100.00;101800.75;4864958;29;20033;-95
2023/01/21 02:44:23;;;;;;;30.13;15.50;;;;;;;-3.95;100.00;101833.94;4864509;29;20425;-94
2023/01/21 02:47:07;;;;;;;24.45;12.32;;;;;;;-3.74;100.00;101793.25;4865303;29;20162;-95
2023/01/21 02:50:02;;;;;;;25.30;8.95;;;;;;;-3.20;100.00;101792.75;4865080;29;20504;-95
2023/01/21 02:52:28;;;;;;;27.45;8.80;;;;;;;-3.37;100.00;101782.31;4862343;29;20038;-94
2023/01/21 02:54:56;;;;;;;22.50;9.75;;;;;;;-2.87;100.00;101791.75;4865866;29;20433;-95
2023/01/21 02:57:33;;;;;;;27.48;9.20;;;;;;;-2.69;100.00;101811.47;4868389;29;20121;-94
2023/01/21 03:00:01;;;;;;;24.27;8.85;;;;;;;-3.04;100.00;101793.94;4868752;29;20030;-94
2023/01/21 03:02:26;;;;;;;27.00;11.10;;;;;;;-2.88;100.00;101832.97;4868506;29;20037;-94
2023/01/21 03:05:08;;;;;;;27.67;12.48;;;;;;;-3.03;100.00;101831.84;4867820;29;20037;-95
2023/01/21 03:07:35;;;;;;;;;;;;;;;-3.17;100.00;101828.19;4868597;29;20034;-95
2023/01/21 03:10:30;;;;;;;25.95;13.15;;;;;;;-3.61;100.00;101795.22;4868013;29;19947;-95
2023/01/21 03:13:14;;;;;;;29.20;15.77;;;;;;;-3.73;100.00;101805.91;4867011;29;20492;-95
2023/01/21 03:18:44;;;;;;;33.55;14.07;;;;;;;-3.86;100.00;101824.09;4867086;29;20049;-94
2023/01/21 03:21:17;;;;;;;23.30;11.02;;;;;;;-3.99;100.00;101815.38;4865498;29;20037;-94
2023/01/21 03:23:46;;;;;;;26.13;14.43;;;;;;;-4.21;100.00;101798.03;4864714;29;20033;-94
2023/01/21 03:26:17;;;;;;;29.88;15.48;;;;;;;-4.11;100.00;101818.44;4864666;29;20033;-94
2023/01/21 03:28:51;;;;;;;45.63;17.47;;;;;;;-4.19;100.00;101834.22;4864026;29;20030;-94
2023/01/21 03:31:27;;;;;;;37.83;16.27;;;;;;;-4.20;100.00;101830.81;4863098;29;20029;-93
2023/01/21 03:33:55;;;;;;;30.50;15.60;;;;;;;-4.34;100.00;101817.00;4863014;29;20029;-94
2023/01/21 03:36:45;;;;;;;30.92;14.43;;;;;;;-4.19;100.00;101840.09;4863899;29;20022;-95
2023/01/21 03:39:21;;;;;;;27.73;13.48;;;;;;;-4.45;100.00;101810.84;4864918;29;20074;-93
2023/01/21 03:41:47;;;;;;;44.25;16.45;;;;;;;-4.57;100.00;101807.19;4865945;29;20147;-94
2023/01/21 03:44:13;;;;;;;29.13;14.07;;;;;;;-4.35;100.00;101821.19;4865427;29;20061;-93
2023/01/21 03:46:47;;;;;;;30.77;12.02;;;;;;;-4.38;100.00;101802.63;4867502;29;20036;-94
2023/01/21 03:49:32;;;;;;;31.10;12.15;;;;;;;-4.14;100.00;101817.53;4867770;29;20030;-94
2023/01/21 03:52:00;;;;;;;26.67;10.15;;;;;;;-3.87;100.00;101835.84;4868375;29;20163;-94
2023/01/21 03:54:26;;;;;;;33.75;10.77;;;;;;;-3.68;100.00;101823.69;4869712;29;20026;-94
2023/01/21 03:56:51;;;;;;;32.17;11.32;;;;;;;-3.58;100.00;101845.78;4870437;29;20089;-92
2023/01/21 03:59:17;;;;;;;28.90;11.35;;;;;;;-3.35;100.00;101842.94;4869872;29;20025;-92
2023/01/21 04:01:42;;;;;;;39.95;11.95;;;;;;;-3.51;100.00;101842.59;4870334;29;20034;-93
2023/01/21 04:04:08;;;;;;;28.90;12.15;;;;;;;-3.36;100.00;101836.19;4870909;29;20512;-95
2023/01/21 04:06:35;;;;;;;42.00;12.65;;;;;;;-3.47;100.00;101824.16;4870335;29;20077;-94
2023/01/21 04:09:04;;;;;;;44.72;13.07;;;;;;;-3.08;100.00;101835.94;4869587;29;20030;-94
2023/01/21 04:11:30;;;;;;;39.95;13.65;;;;;;;-2.60;100.00;101837.75;4865574;29;20499;-93
2023/01/21 04:13:55;;;;;;;42.78;13.23;;;;;;;-2.71;100.00;101838.38;4864301;29;20120;-94
2023/01/21 04:16:21;;;;;;;43.22;13.85;;;;;;;-2.91;100.00;101846.41;4870819;29;20425;-95
2023/01/21 04:18:47;;;;;;;29.83;12.50;;;;;;;-3.24;100.00;101841.50;4872718;29;20022;-93
2023/01/21 04:21:13;;;;;;;33.28;13.13;;;;;;;-3.26;100.00;101868.38;4872644;29;20037;-94
2023/01/21 04:23:38;;;;;;;34.15;11.95;;;;;;;-3.54;100.00;101839.97;4873478;29;20029;-94
2023/01/21 04:26:04;;;;;;;36.28;12.77;;;;;;;-3.46;100.00;101855.31;4873203;29;20030;-94
2023/01/21 04:28:30;;;;;;;41.05;13.57;;;;;;;-3.47;100.00;101864.53;4873465;29;20021;-93
2023/01/21 04:30:55;;;;;;;38.47;13.38;;;;;;;-3.36;100.00;101882.47;4874256;29;20025;-95
2023/01/21 04:33:21;;;;;;;33.72;12.60;;;;;;;-3.56;100.00;101854.25;4874907;29;20078;-94
2023/01/21 04:35:47;;;;;;;33.58;13.35;;;;;;;-3.57;100.00;101847.47;4874662;29;20025;-94
2023/01/21 04:38:14;;;;;;;29.77;13.43;;;;;;;-3.54;100.00;101852.59;4874222;29;20492;-95
2023/01/21 04:40:40;;;;;;;34.85;13.38;;;;;;;-3.39;100.00;101866.38;4874133;29;20101;-94
2023/01/21 04:43:06;;;;;;;34.15;13.10;;;;;;;-3.68;100.00;101859.00;4874155;29;20046;-94
2023/01/21 04:45:31;;;;;;;34.22;12.98;;;;;;;-3.54;100.00;101900.53;4875302;29;20026;-94
2023/01/21 04:47:57;;;;;;;37.55;17.27;;;;;;;-3.49;100.00;101906.59;4874376;29;20050;-91
2023/01/21 04:50:22;;;;;;;40.40;18.67;;;;;;;-3.49;100.00;101899.00;4874402;29;20030;-92
2023/01/21 04:52:48;;;;;;;43.25;18.00;;;;;;;-3.31;100.00;101925.50;4875243;29;20390;-93
2023/01/21 04:55:13;;;;;;;52.20;20.65;;;;;;;-3.46;100.00;101905.81;4874556;29;20043;-93
2023/01/21 04:57:39;;;;;;;48.72;19.88;;;;;;;-3.47;100.00;101897.34;4874595;29;20053;-93
2023/01/21 05:00:06;;;;;;;41.88;19.17;;;;;;;-3.24;100.00;101929.88;4878097;29;20070;-93
2023/01/21 05:02:32;;;;;;;33.97;18.75;;;;;;;-3.44;100.00;101901.63;4878716;29;20033;-94
2023/01/21 05:04:58;;;;;;;38.22;16.48;;;;;;;-3.43;100.00;101921.00;4877409;29;20034;-94
2023/01/21 05:07:24;;;;;;;35.85;16.73;;;;;;;-3.61;100.00;101934.00;4878216;29;20041;-95
2023/01/21 05:09:49;;;;;;;24.35;14.15;;;;;;;-3.94;100.00;101907.13;4878216;29;20037;-94
2023/01/21 05:12:15;;;;;;;25.48;14.77;;;;;;;-3.93;100.00;101920.59;4878762;29;20052;-94
2023/01/21 05:14:40;;;;;;;34.70;16.67;;;;;;;-4.01;100.00;101915.34;4878674;29;20029;-93
2023/01/21 05:17:06;;;;;;;34.03;16.70;;;;;;;-3.98;100.00;101919.63;4877887;29;20033;-93
2023/01/21 05:19:31;;;;;;;44.85;15.57;;;;;;;-4.21;100.00;101906.44;4879338;29;20036;-93
2023/01/21 05:21:57;;;;;;;33.60;15.30;;;;;;;-4.19;100.00;101915.72;4878897;29;20104;-95
2023/01/21 05:24:23;;;;;;;41.15;14.93;;;;;;;-4.19;100.00;101935.06;4879375;29;20033;-94
2023/01/21 05:26:48;;;;;;;34.90;14.57;;;;;;;-4.35;100.00;101932.09;4879221;29;20062;-95
2023/01/21 05:29:17;;;;;;;30.08;14.85;;;;;;;-4.39;100.00;101927.81;4875320;29;20026;-94
2023/01/21 05:31:43;;;;;;;41.80;14.68;;;;;;;-4.22;100.00;101955.13;4866969;29;20030;-96
2023/01/21 05:34:10;;;;;;;31.08;14.55;;;;;;;-4.41;100.00;101939.50;4866860;29;20038;-95
2023/01/21 05:36:36;;;;;;;32.90;14.77;;;;;;;-4.34;100.00;101936.34;4867767;29;20026;-96
2023/01/21 05:39:02;;;;;;;39.08;16.17;;;;;;;-4.27;100.00;101952.47;4868373;29;20033;-95
2023/01/21 05:41:28;;;;;;;34.47;16.77;;;;;;;-4.34;100.00;101938.84;4867399;29;20033;-95
2023/01/21 05:43:56;;;;;;;41.22;17.50;;;;;;;-4.38;100.00;101926.97;4867889;29;20055;-96
2023/01/21 05:46:22;;;;;;;41.45;16.08;;;;;;;-4.47;100.00;101934.28;4869868;29;20063;-96
2023/01/21 05:48:52;;;;;;;32.88;15.75;;;;;;;-4.60;100.00;101929.72;4868315;29;20033;-96
2023/01/21 05:51:18;;;;;;;32.10;15.88;;;;;;;-4.64;100.00;101943.00;4868450;29;20033;-96
2023/01/21 05:53:44;;;;;;;38.88;16.45;;;;;;;-4.51;100.00;101977.84;4868348;29;20040;-96
2023/01/21 05:56:12;;;;;;;36.92;15.68;;;;;;;-4.81;100.00;101938.31;4894632;29;20049;-96
2023/01/21 05:58:46;;;;;;;30.52;14.13;;;;;;;-4.72;100.00;101957.06;4889146;29;20037;-96
2023/01/21 06:01:19;;;;;;;48.47;17.92;;;;;;;-4.90;100.00;101938.09;4918868;29;20047;-94
2023/01/21 06:03:46;;;;;;;40.28;16.75;;;;;;;-4.88;100.00;101940.63;4904537;29;20033;-96
2023/01/21 06:06:15;;;;;;;28.23;15.20;;;;;;;-4.89;100.00;101949.84;4890461;29;20021;-96
2023/01/21 06:08:42;;;;;;;43.60;18.70;;;;;;;-4.84;100.00;101972.66;4888232;29;20057;-94
2023/01/21 06:11:08;;;;;;;36.97;15.82;;;;;;;-4.98;100.00;101970.56;4888234;29;20036;-95
2023/01/21 06:13:34;;;;;;;27.38;14.70;;;;;;;-5.09;100.00;101966.88;4887423;29;20538;-96
2023/01/21 06:15:59;;;;;;;31.05;14.30;;;;;;;-5.04;100.00;101989.66;4904716;29;20056;-95
2023/01/21 06:18:25;;;;;;;30.80;13.35;;;;;;;-5.30;100.00;101959.47;4886343;29;20100;-96
2023/01/21 06:20:54;;;;;;;27.20;13.60;;;;;;;-5.33;100.00;101964.41;4904095;29;20041;-96
2023/01/21 06:23:25;;;;;;;23.70;12.57;;;;;;;-5.35;100.00;101971.06;4890086;29;20029;-96
2023/01/21 06:25:53;;;;;;;33.87;14.70;;;;;;;-5.30;100.00;101992.19;4904878;29;20040;-95
2023/01/21 06:28:21;;;;;;;34.53;15.32;;;;;;;-5.37;100.00;101976.03;4920761;29;20336;-96
2023/01/21 06:30:53;;;;;;;28.80;14.35;;;;;;;-5.41;100.00;101978.44;4904793;29;20055;-96
2023/01/21 06:33:19;;;;;;;37.38;14.80;;;;;;;-5.44;100.00;101978.31;4919901;29;20094;-96
2023/01/21 06:35:47;;;;;;;40.58;15.85;;;;;;;-5.21;100.00;102019.34;4888916;29;20058;-96
2023/01/21 06:38:25;;;;;;;;;;;;;;;;;;;;;
2023/01/21 06:41:02;;;;;;;36.17;14.90;;;;;;;-5.38;100.00;101976.00;4887663;29;20124;-96
2023/01/21 06:43:34;;;;;;;34.55;16.55;;;;;;;-5.37;100.00;101980.22;4885845;29;20040;-96
2023/01/21 06:46:06;;;;;;;36.42;18.33;;;;;;;-5.30;100.00;101979.63;4898914;29;20037;-96
2023/01/21 06:48:34;;;;;;;36.92;16.60;;;;;;;-5.23;100.00;101976.50;4884014;29;20029;-95
2023/01/21 06:51:29;;;;;;;26.70;15.57;;;;;;;-5.24;100.00;101982.34;4919817;29;20128;-96
2023/01/21 06:54:04;;;;;;;27.52;14.80;;;;;;;-5.34;100.00;101980.34;4903913;29;20067;-96
2023/01/21 06:56:35;;;;;;;34.03;17.80;;;;;;;-5.41;100.00;101988.50;4888425;29;20061;-95
2023/01/21 06:59:07;;;;;;;;;;;;;;;-5.09;100.00;102036.50;4886909;29;20036;-96
2023/01/21 07:01:32;;;;;;;61.50;18.77;;;;;;;-5.07;100.00;102029.81;4902128;29;19926;-95
2023/01/21 07:04:06;;;;;;;35.42;18.25;;;;;;;-5.23;100.00;101995.78;4887484;29;20021;-96
2023/01/21 07:06:37;;;;;;;36.65;18.48;;;;;;;-5.20;100.00;101999.22;4901367;29;20101;-96
2023/01/21 07:09:26;;;;;;;44.53;17.40;;;;;;;-5.12;100.00;102007.06;4887321;29;20033;-96
2023/01/21 07:12:45;;;;;;;32.30;18.00;;;;;;;-5.11;100.00;102002.88;4889281;29;20037;-96
2023/01/21 07:15:39;;;;;;;31.52;16.02;;;;;;;-4.82;100.00;102003.78;4888661;29;20029;-96
2023/01/21 07:18:16;;;;;;;49.80;18.27;;;;;;;-4.60;100.00;102005.28;4872257;29;20131;-96
2023/01/21 07:20:52;;;;;;;37.10;16.73;;;;;;;-4.74;100.00;102010.75;4917763;29;20036;-95
2023/01/21 07:23:20;;;;;;;43.10;17.55;;;;;;;-4.48;100.00;102018.25;4917256;29;20029;-96
2023/01/21 07:25:55;;;;;;;52.67;20.10;;;;;;;-4.40;100.00;102009.25;4886748;29;20025;-96
2023/01/21 07:28:29;;;;;;;49.55;19.45;;;;;;;-4.31;100.00;102027.16;4917697;29;20074;-96
2023/01/21 07:30:58;;;;;;;60.83;20.55;;;;;;;-4.38;100.00;102022.75;4900391;29;20041;-96
2023/01/21 07:33:30;;;;;;;56.13;20.48;;;;;;;-4.39;100.00;102033.66;4899906;29;20416;-95
2023/01/21 07:35:58;;;;;;;66.78;19.52;;;;;;;-4.10;100.00;102048.75;4898262;29;20029;-96
2023/01/21 07:38:27;;;;;;;51.90;19.20;;;;;;;-4.22;100.00;102035.78;4898383;29;20040;-96
2023/01/21 07:40:52;;;;;;;80.63;20.27;;;;;;;-4.04;100.00;102051.44;4897696;29;20021;-96
2023/01/21 07:43:29;;;;;;;58.13;18.50;;;;;;;-3.98;100.00;102041.53;4881895;29;20032;-95
2023/01/21 07:46:00;;;;;;;56.75;18.70;;;;;;;-4.00;100.00;102053.25;4896653;29;20476;-96
2023/01/21 07:48:27;;;;;;;68.47;20.63;;;;;;;-4.01;100.00;102041.44;4896752;29;20502;-96
2023/01/21 07:50:57;;;;;;;56.40;18.52;;;;;;;-3.97;100.00;102044.94;4882043;29;20033;-96
2023/01/21 07:53:23;;;;;;;75.35;20.65;;;;;;;-3.92;100.00;102051.81;4896920;29;20098;-96
2023/01/21 07:55:51;;;;;;;48.45;17.65;;;;;;;-3.83;100.00;102068.84;4897822;29;20029;-96
2023/01/21 07:58:20;;;;;;;49.50;16.83;;;;;;;-3.54;100.00;102097.41;4896605;29;20040;-96
2023/01/21 08:00:45;;;;;;;44.85;15.80;;;;;;;-3.67;100.00;102057.53;4880035;29;20057;-96
2023/01/21 08:03:14;;;;;;;59.45;16.10;;;;;;;-3.55;100.00;102067.94;4879965;29;20036;-95
2023/01/21 08:05:42;;;;;;;53.25;16.77;;;;;;;-3.19;100.00;102117.69;4895232;29;20488;-96
2023/01/21 08:08:13;;;;;;;55.70;16.23;;;;;;;-2.95;100.00;102096.38;4883081;29;20120;-96
2023/01/21 08:10:39;;;;;;;66.78;17.98;;;;;;;-3.06;100.00;102066.66;4913505;29;20104;-96
2023/01/21 08:13:07;;;;;;;54.28;16.98;;;;;;;-3.09;100.00;102074.19;4896685;29;20037;-96
2023/01/21 08:15:33;;;;;;;51.08;15.68;;;;;;;-2.97;100.00;102068.59;4896248;29;20060;-96
2023/01/21 08:17:58;;;;;;;85.25;17.13;;;;;;;-2.91;100.00;102077.97;4911622;29;20042;-96
2023/01/21 08:20:24;;;;;;;44.08;14.85;;;;;;;-2.87;100.00;102082.28;4897653;29;20029;-96
2023/01/21 08:22:50;;;;;;;71.70;17.83;;;;;;;-2.78;100.00;102084.16;4896764;29;20029;-96
2023/01/21 08:25:15;;;;;;;69.75;19.80;;;;;;;-2.79;100.00;102098.47;4914719;29;20033;-96
2023/01/21 08:27:44;;;;;;;62.83;19.35;;;;;;;-2.90;100.00;102085.59;4880514;29;20077;-96
2023/01/21 08:30:10;;;;;;;82.03;19.25;;;;;;;-2.93;100.00;102094.75;4896138;29;20029;-96
2023/01/21 08:32:35;;;;;;;50.38;16.48;;;;;;;-2.96;100.00;102089.63;4895698;29;20029;-96
2023/01/21 08:35:01;;;;;;;63.78;18.85;;;;;;;-2.85;100.00;102105.94;4903011;29;20553;-95
2023/01/21 08:37:27;;;;;;;44.22;15.65;;;;;;;-2.59;100.00;102106.53;4915204;29;20025;-96
2023/01/21 08:39:55;;;;;;;59.40;16.65;;;;;;;-2.55;100.00;102107.47;4899355;29;20033;-95
2023/01/21 08:42:21;;;;;;;69.53;18.10;;;;;;;-2.45;100.00;102115.28;4898460;29;20061;-96
2023/01/21 08:44:49;;;;;;;72.40;19.40;;;;;;;-2.20;100.00;102148.72;4915354;29;20112;-96
2023/01/21 08:47:16;;;;;;;62.08;17.63;;;;;;;-2.23;100.00;102124.22;4914783;29;20264;-96
2023/01/21 08:49:45;;;;;;;48.20;16.70;;;;;;;-2.14;100.00;102125.25;4901167;29;20029;-96
2023/01/21 08:52:11;;;;;;;69.22;18.30;;;;;;;-2.14;100.00;102123.59;4899587;29;20476;-96
2023/01/21 08:54:37;;;;;;;54.35;16.33;;;;;;;-1.85;100.00;102134.34;4899635;29;20112;-96
2023/01/21 08:57:03;;;;;;;56.60;15.98;;;;;;;-1.24;100.00;102139.75;4919780;29;20116;-96
2023/01/21 08:59:29;;;;;;;50.85;15.70;;;;;;;-1.12;100.00;102129.84;4914376;29;20083;-96
2023/01/21 09:01:56;;;;;;;53.20;16.75;;;;;;;-0.75;100.00;102145.69;4882009;29;20037;-94
2023/01/21 09:04:22;;;;;;;65.43;18.13;;;;;;;-0.94;100.00;102134.38;4882072;29;20025;-96
2023/01/21 09:06:51;;;;;;;62.15;17.58;;;;;;;-0.74;100.00;102144.00;4913880;29;20032;-96
2023/01/21 09:09:16;;;;;;;69.43;17.77;;;;;;;-0.56;100.00;102151.91;4899225;29;20032;-95
2023/01/21 09:11:42;;;;;;;62.90;20.23;;;;;;;-0.23;100.00;102181.16;4882875;29;20033;-95
2023/01/21 09:14:07;;;;;;;72.15;19.42;;;;;;;-0.37;100.00;102152.19;4913208;29;20025;-96
2023/01/21 09:16:35;;;;;;;71.05;19.45;;;;;;;-0.31;100.00;102153.13;4881673;29;20400;-96
2023/01/21 09:19:01;;;;;;;65.18;20.75;;;;;;;-0.17;100.00;102160.09;4881213;29;20032;-95
2023/01/21 09:21:28;;;;;;;62.05;19.10;;;;;;;-0.07;100.00;102187.34;4881276;29;20037;-95
2023/01/21 09:23:54;;;;;;;64.80;18.52;;;;;;;-0.05;100.00;102166.22;4896634;29;20382;-95
2023/01/21 09:26:23;;;;;;;63.80;21.20;;;;;;;-0.02;100.00;102161.19;4880710;29;20036;-96
2023/01/21 09:28:55;;;;;;;70.05;22.10;;;;;;;0.51;100.00;102189.78;4896654;29;20025;-96
2023/01/21 09:31:22;;;;;;;75.70;24.63;;;;;;;0.57;100.00;102174.63;4896522;29;20033;-96
2023/01/21 09:33:50;;;;;;;74.10;23.88;;;;;;;1.15;100.00;102167.63;4882025;29;20085;-95
2023/01/21 09:36:21;;;;;;;59.72;19.90;;;;;;;1.71;100.00;102172.31;4880638;29;20120;-96
2023/01/21 09:38:49;;;;;;;61.42;19.05;;;;;;;1.93;100.00;102190.28;4881495;29;20032;-96
2023/01/21 09:41:32;;;;;;;61.67;19.23;;;;;;;2.20;100.00;102209.13;4896849;29;20037;-96
2023/01/21 09:44:22;;;;;;;63.17;20.27;;;;;;;1.86;100.00;102208.91;4911794;29;20033;-95
2023/01/21 09:47:03;;;;;;;57.15;18.80;;;;;;;1.31;100.00;102177.91;4880325;29;20033;-95
2023/01/21 09:49:31;;;;;;;50.33;17.20;;;;;;;1.39;100.00;102219.53;4911930;29;20036;-94
2023/01/21 09:52:23;;;;;;;48.53;18.15;;;;;;;1.16;100.00;102199.81;4911860;29;20040;-95
2023/01/21 09:54:48;;;;;;;47.33;17.10;;;;;;;1.04;100.00;102197.16;4875078;29;20037;-95
2023/01/21 09:57:14;;;;;;;44.15;16.55;;;;;;;1.62;100.00;102220.59;4912005;29;20120;-95
2023/01/21 09:59:39;;;;;;;48.42;17.63;;;;;;;1.51;100.00;102196.75;4880234;29;20476;-95
2023/01/21 10:02:17;;;;;;;40.25;15.70;;;;;;;1.37;100.00;102173.75;4880010;29;20089;-95
2023/01/21 10:05:17;;;;;;;30.27;14.70;;;;;;;1.63;100.00;102175.63;4895596;29;20040;-95
2023/01/21 10:08:15;;;;;;;30.10;14.45;;;;;;;1.96;100.00;102204.72;4879862;29;20021;-95
2023/01/21 10:10:47;;;;;;;31.30;15.20;;;;;;;1.86;100.00;102208.91;4879879;29;20036;-95
2023/01/21 10:13:32;;;;;;;;;;;;;;;2.02;100.00;102215.78;4879941;29;20040;-95
2023/01/21 10:16:21;;;;;;;30.35;14.93;;;;;;;2.45;100.00;102222.84;4898449;29;19916;-95
2023/01/21 10:18:51;;;;;;;34.50;16.42;;;;;;;2.08;100.00;102200.56;4870242;29;20037;-95
2023/01/21 10:21:40;;;;;;;30.67;16.38;;;;;;;2.48;99.20;102190.56;4895221;29;20510;-95
2023/01/21 10:24:17;;;;;;;38.33;17.50;;;;;;;2.79;98.09;102206.84;4895461;29;20449;-95
2023/01/21 10:26:46;;;;;;;57.35;20.23;;;;;;;2.81;94.57;102213.66;4880092;29;20025;-95
2023/01/21 10:29:18;;;;;;;59.83;17.60;;;;;;;2.97;92.36;102216.22;4880043;29;20101;-94
2023/01/21 10:31:53;;;;;;;66.63;15.77;;;;;;;2.61;95.45;102231.41;4895838;29;20025;-94
2023/01/21 10:34:19;;;;;;;36.45;15.07;;;;;;;2.54;93.32;102211.00;4879195;29;20058;-96
2023/01/21 10:36:44;;;;;;;37.40;16.98;;;;;;;2.99;94.30;102250.25;4910516;29;20029;-95
2023/01/21 10:39:31;;;;;;;42.50;16.98;;;;;;;2.96;93.15;102250.25;4879912;29;20100;-95
2023/01/21 10:42:08;;;;;;;42.45;17.48;;;;;;;3.26;91.88;102238.41;4910226;29;20040;-94
2023/01/21 10:44:55;;;;;;;39.97;17.65;;;;;;;2.97;91.48;102244.28;4910307;29;20045;-94
2023/01/21 10:48:00;;;;;;;123.38;19.63;;;;;;;2.79;91.01;102219.59;4910124;29;20021;-94
2023/01/21 10:50:38;;;;;;;155.85;20.70;;;;;;;3.09;89.61;102242.63;4879327;29;20029;-95
2023/01/21 10:53:29;;;;;;;44.50;17.83;;;;;;;3.20;92.19;102243.53;4878699;29;20036;-95
2023/01/21 10:56:24;;;;;;;77.68;17.92;;;;;;;3.13;91.56;102232.44;4909754;29;20429;-94
2023/01/21 10:59:00;;;;;;;206.85;19.27;;;;;;;2.88;90.51;102231.53;4878962;29;20036;-95
2023/01/21 11:01:37;;;;;;;77.18;17.42;;;;;;;2.95;94.21;102257.88;4878980;29;20037;-94
2023/01/21 11:04:11;;;;;;;75.03;18.15;;;;;;;3.04;91.80;102216.25;4894447;29;20033;-95
2023/01/21 11:06:38;;;;;;;51.42;15.25;;;;;;;3.37;88.60;102234.19;4910171;29;20093;-94
2023/01/21 11:09:08;;;;;;;63.33;18.55;;;;;;;3.57;89.72;102228.25;4878753;29;20073;-95
2023/01/21 11:11:35;;;;;;;40.75;16.30;;;;;;;3.85;89.96;102260.59;4878934;29;20117;-94
2023/01/21 11:14:01;;;;;;;46.85;18.50;;;;;;;3.90;87.03;102237.59;4910673;29;20037;-95
2023/01/21 11:16:38;;;;;;;46.15;18.75;;;;;;;3.82;86.73;102222.28;4894006;29;20044;-94
2023/01/21 11:19:05;;;;;;;38.90;18.48;;;;;;;3.88;87.16;102259.75;4878581;29;20033;-95
2023/01/21 11:21:31;;;;;;;35.58;16.52;;;;;;;3.69;87.58;102225.69;4893925;29;20619;-95
2023/01/21 11:24:03;;;;;;;32.63;17.15;;;;;;;4.09;87.04;102228.19;4910154;29;20208;-94
2023/01/21 11:26:34;;;;;;;31.77;16.67;;;;;;;4.88;82.31;102256.94;4895865;29;20552;-94